sensor_id;sensor_type;location;lat;lon;timestamp;pressure;altitude;pressure_sealevel;temperature;humidity
75767;BME280;64378;55.596;13.014;2023-02-13T00:00:58;103267.28;;;19.92;36.44
75767;BME280;64378;55.596;13.014;2023-02-13T00:03:23;103260.94;;;19.92;36.75
75767;BME280;64378;55.596;13.014;2023-02-13T00:05:49;103263.69;;;19.92;36.52
75767;BME280;64378;55.596;13.014;2023-02-13T00:08:14;103261.16;;;19.90;36.47
75767;BME280;64378;55.596;13.014;2023-02-13T00:10:40;103254.81;;;19.90;36.68
75767;BME280;64378;55.596;13.014;2023-02-13T00:13:05;103255.69;;;19.90;36.48
75767;BME280;64378;55.596;13.014;2023-02-13T00:15:30;103254.81;;;19.90;36.41
75767;BME280;64378;55.596;13.014;2023-02-13T00:17:56;103253.13;;;19.89;36.49
75767;BME280;64378;55.596;13.014;2023-02-13T00:20:22;103255.84;;;19.89;36.67
75767;BME280;64378;55.596;13.014;2023-02-13T00:22:47;103254.16;;;19.88;36.56
75767;BME280;64378;55.596;13.014;2023-02-13T00:25:13;103258.81;;;19.87;36.62
75767;BME280;64378;55.596;13.014;2023-02-13T00:27:38;103255.03;;;19.88;36.58
75767;BME280;64378;55.596;13.014;2023-02-13T00:30:04;103252.28;;;19.88;36.77
75767;BME280;64378;55.596;13.014;2023-02-13T00:32:29;103256.06;;;19.87;36.69
75767;BME280;64378;55.596;13.014;2023-02-13T00:34:55;103267.88;;;19.88;36.82
75767;BME280;64378;55.596;13.014;2023-02-13T00:37:21;103253.56;;;19.86;36.58
75767;BME280;64378;55.596;13.014;2023-02-13T00:39:46;103256.06;;;19.87;36.51
75767;BME280;64378;55.596;13.014;2023-02-13T00:42:11;103253.56;;;19.86;36.71
75767;BME280;64378;55.596;13.014;2023-02-13T00:44:37;103257.13;;;19.86;36.71
75767;BME280;64378;55.596;13.014;2023-02-13T00:47:02;103258.00;;;19.87;36.72
75767;BME280;64378;55.596;13.014;2023-02-13T00:49:27;103250.81;;;19.86;36.55
75767;BME280;64378;55.596;13.014;2023-02-13T00:51:53;103256.28;;;19.86;36.66
75767;BME280;64378;55.596;13.014;2023-02-13T00:54:21;103252.69;;;19.85;36.74
75767;BME280;64378;55.596;13.014;2023-02-13T00:56:47;103266.38;;;19.85;36.75
75767;BME280;64378;55.596;13.014;2023-02-13T00:59:12;103255.44;;;19.85;36.82
75767;BME280;64378;55.596;13.014;2023-02-13T01:01:38;103250.16;;;19.84;36.92
75767;BME280;64378;55.596;13.014;2023-02-13T01:04:03;103253.75;;;19.84;36.84
75767;BME280;64378;55.596;13.014;2023-02-13T01:06:28;103252.91;;;19.84;36.82
75767;BME280;64378;55.596;13.014;2023-02-13T01:08:54;103250.34;;;19.82;37.00
75767;BME280;64378;55.596;13.014;2023-02-13T01:11:19;103255.00;;;19.82;36.83
75767;BME280;64378;55.596;13.014;2023-02-13T01:13:45;103246.97;;;19.80;37.01
75767;BME280;64378;55.596;13.014;2023-02-13T01:16:10;103241.50;;;19.80;36.94
75767;BME280;64378;55.596;13.014;2023-02-13T01:18:36;103230.75;;;19.79;36.98
75767;BME280;64378;55.596;13.014;2023-02-13T01:21:05;103226.97;;;19.80;36.78
75767;BME280;64378;55.596;13.014;2023-02-13T01:23:32;103220.63;;;19.79;36.97
75767;BME280;64378;55.596;13.014;2023-02-13T01:25:59;103220.63;;;19.79;37.23
75767;BME280;64378;55.596;13.014;2023-02-13T01:28:24;103227.16;;;19.78;36.94
75767;BME280;64378;55.596;13.014;2023-02-13T01:30:54;103234.53;;;19.78;37.11
75767;BME280;64378;55.596;13.014;2023-02-13T01:33:21;103236.41;;;19.77;37.03
75767;BME280;64378;55.596;13.014;2023-02-13T01:35:46;103230.09;;;19.77;37.08
75767;BME280;64378;55.596;13.014;2023-02-13T01:38:11;103226.50;;;19.76;37.09
75767;BME280;64378;55.596;13.014;2023-02-13T01:40:44;103222.94;;;19.76;37.13
75767;BME280;64378;55.596;13.014;2023-02-13T01:43:10;103233.88;;;19.76;36.99
75767;BME280;64378;55.596;13.014;2023-02-13T01:45:36;103228.41;;;19.76;37.09
75767;BME280;64378;55.596;13.014;2023-02-13T01:50:43;103232.19;;;19.75;37.18
75767;BME280;64378;55.596;13.014;2023-02-13T01:53:15;103222.06;;;19.75;37.18
75767;BME280;64378;55.596;13.014;2023-02-13T01:55:51;103226.72;;;19.75;37.15
75767;BME280;64378;55.596;13.014;2023-02-13T01:58:25;103216.81;;;19.74;37.33
75767;BME280;64378;55.596;13.014;2023-02-13T02:00:51;103225.03;;;19.74;37.34
75767;BME280;64378;55.596;13.014;2023-02-13T02:03:35;103214.94;;;19.74;37.31
75767;BME280;64378;55.596;13.014;2023-02-13T02:06:03;103223.34;;;19.73;37.20
75767;BME280;64378;55.596;13.014;2023-02-13T02:08:30;103215.13;;;19.73;37.33
75767;BME280;64378;55.596;13.014;2023-02-13T02:11:02;103211.31;;;19.74;37.33
75767;BME280;64378;55.596;13.014;2023-02-13T02:13:29;103208.81;;;19.72;37.34
75767;BME280;64378;55.596;13.014;2023-02-13T02:15:55;103214.28;;;19.72;37.27
75767;BME280;64378;55.596;13.014;2023-02-13T02:18:22;103216.16;;;19.72;37.18
75767;BME280;64378;55.596;13.014;2023-02-13T02:45:39;103202.88;;;19.69;37.25
75767;BME280;64378;55.596;13.014;2023-02-13T02:48:29;103207.50;;;19.68;37.23
75767;BME280;64378;55.596;13.014;2023-02-13T02:54:13;103194.00;;;19.67;37.32
75767;BME280;64378;55.596;13.014;2023-02-13T02:57:05;103206.00;;;19.66;37.52
75767;BME280;64378;55.596;13.014;2023-02-13T02:59:33;103215.09;;;19.66;37.31
75767;BME280;64378;55.596;13.014;2023-02-13T03:02:20;103212.34;;;19.66;36.96
75767;BME280;64378;55.596;13.014;2023-02-13T03:05:14;103212.53;;;19.65;37.24
75767;BME280;64378;55.596;13.014;2023-02-13T03:08:17;103216.31;;;19.64;37.17
75767;BME280;64378;55.596;13.014;2023-02-13T03:11:05;103210.84;;;19.64;37.07
75767;BME280;64378;55.596;13.014;2023-02-13T03:13:49;103204.53;;;19.63;37.12
75767;BME280;64378;55.596;13.014;2023-02-13T03:16:24;103210.66;;;19.65;37.25
75767;BME280;64378;55.596;13.014;2023-02-13T03:19:17;103220.97;;;19.63;37.03
75767;BME280;64378;55.596;13.014;2023-02-13T03:24:58;103219.91;;;19.64;37.16
75767;BME280;64378;55.596;13.014;2023-02-13T03:30:33;103220.09;;;19.63;37.02
75767;BME280;64378;55.596;13.014;2023-02-13T03:41:47;103224.53;;;19.64;37.10
75767;BME280;64378;55.596;13.014;2023-02-13T03:44:16;103235.50;;;19.64;36.93
75767;BME280;64378;55.596;13.014;2023-02-13T03:46:45;103231.94;;;19.63;37.15
75767;BME280;64378;55.596;13.014;2023-02-13T03:49:43;103240.13;;;19.63;36.71
75767;BME280;64378;55.596;13.014;2023-02-13T03:52:34;103232.97;;;19.63;36.78
75767;BME280;64378;55.596;13.014;2023-02-13T03:55:09;103227.50;;;19.63;36.88
75767;BME280;64378;55.596;13.014;2023-02-13T03:57:58;103232.97;;;19.63;36.84
75767;BME280;64378;55.596;13.014;2023-02-13T04:00:47;103231.28;;;19.62;36.85
75767;BME280;64378;55.596;13.014;2023-02-13T04:05:43;103247.72;;;19.62;36.71
75767;BME280;64378;55.596;13.014;2023-02-13T04:08:10;103241.41;;;19.61;36.99
75767;BME280;64378;55.596;13.014;2023-02-13T04:10:41;103240.53;;;19.61;36.87
75767;BME280;64378;55.596;13.014;2023-02-13T04:13:15;103236.75;;;19.62;36.69
75767;BME280;64378;55.596;13.014;2023-02-13T04:15:48;103238.66;;;19.61;36.75
75767;BME280;64378;55.596;13.014;2023-02-13T04:18:24;103238.66;;;19.61;36.77
75767;BME280;64378;55.596;13.014;2023-02-13T04:20:51;103238.84;;;19.60;36.56
75767;BME280;64378;55.596;13.014;2023-02-13T04:23:17;103233.38;;;19.60;36.70
75767;BME280;64378;55.596;13.014;2023-02-13T04:25:46;103232.31;;;19.61;36.80
75767;BME280;64378;55.596;13.014;2023-02-13T04:28:12;103228.75;;;19.60;36.58
75767;BME280;64378;55.596;13.014;2023-02-13T04:30:38;103234.22;;;19.60;36.73
75767;BME280;64378;55.596;13.014;2023-02-13T04:33:03;103231.50;;;19.60;36.76
75767;BME280;64378;55.596;13.014;2023-02-13T04:35:29;103229.81;;;19.59;36.62
75767;BME280;64378;55.596;13.014;2023-02-13T04:37:54;103228.94;;;19.59;36.47
75767;BME280;64378;55.596;13.014;2023-02-13T04:40:20;103234.41;;;19.59;36.43
75767;BME280;64378;55.596;13.014;2023-02-13T04:42:48;103238.00;;;19.59;36.38
75767;BME280;64378;55.596;13.014;2023-02-13T04:45:15;103239.06;;;19.58;36.38
75767;BME280;64378;55.596;13.014;2023-02-13T04:47:40;103238.19;;;19.58;36.19
75767;BME280;64378;55.596;13.014;2023-02-13T04:50:06;103238.19;;;19.58;36.27
75767;BME280;64378;55.596;13.014;2023-02-13T04:52:32;103240.09;;;19.57;36.22
75767;BME280;64378;55.596;13.014;2023-02-13T04:54:57;103234.81;;;19.56;36.47
75767;BME280;64378;55.596;13.014;2023-02-13T04:57:22;103243.91;;;19.56;36.26
75767;BME280;64378;55.596;13.014;2023-02-13T04:59:48;103236.91;;;19.54;36.18
75767;BME280;64378;55.596;13.014;2023-02-13T05:02:13;103239.47;;;19.55;36.17
75767;BME280;64378;55.596;13.014;2023-02-13T05:04:38;103229.56;;;19.54;36.04
75767;BME280;64378;55.596;13.014;2023-02-13T05:07:04;103232.28;;;19.54;36.11
75767;BME280;64378;55.596;13.014;2023-02-13T05:09:29;103244.28;;;19.53;36.17
75767;BME280;64378;55.596;13.014;2023-02-13T05:11:55;103244.06;;;19.55;35.92
75767;BME280;64378;55.596;13.014;2023-02-13T05:14:20;103246.16;;;19.53;35.99
75767;BME280;64378;55.596;13.014;2023-02-13T05:16:46;103249.94;;;19.52;36.02
75767;BME280;64378;55.596;13.014;2023-02-13T05:19:12;103237.13;;;19.52;36.20
75767;BME280;64378;55.596;13.014;2023-02-13T05:21:37;103239.84;;;19.52;36.04
75767;BME280;64378;55.596;13.014;2023-02-13T05:24:21;103234.38;;;19.52;36.00
75767;BME280;64378;55.596;13.014;2023-02-13T05:26:46;103247.22;;;19.52;35.88
75767;BME280;64378;55.596;13.014;2023-02-13T05:29:12;103238.16;;;19.51;36.33
75767;BME280;64378;55.596;13.014;2023-02-13T05:31:47;103229.94;;;19.51;35.98
75767;BME280;64378;55.596;13.014;2023-02-13T05:34:14;103222.56;;;19.52;36.12
75767;BME280;64378;55.596;13.014;2023-02-13T05:36:39;103229.09;;;19.51;35.89
75767;BME280;64378;55.596;13.014;2023-02-13T05:39:05;103230.13;;;19.50;35.77
75767;BME280;64378;55.596;13.014;2023-02-13T05:41:30;103228.25;;;19.50;36.00
75767;BME280;64378;55.596;13.014;2023-02-13T05:43:56;103228.25;;;19.50;36.17
75767;BME280;64378;55.596;13.014;2023-02-13T05:46:21;103220.88;;;19.51;35.62
75767;BME280;64378;55.596;13.014;2023-02-13T05:48:47;103230.13;;;19.50;35.72
75767;BME280;64378;55.596;13.014;2023-02-13T05:51:12;103223.81;;;19.49;35.78
75767;BME280;64378;55.596;13.014;2023-02-13T05:53:37;103232.25;;;19.48;35.88
75767;BME280;64378;55.596;13.014;2023-02-13T05:56:04;103240.47;;;19.48;35.95
75767;BME280;64378;55.596;13.014;2023-02-13T05:58:30;103240.47;;;19.48;35.88
75767;BME280;64378;55.596;13.014;2023-02-13T06:00:56;103237.72;;;19.48;35.75
75767;BME280;64378;55.596;13.014;2023-02-13T06:03:23;103245.09;;;19.47;35.75
75767;BME280;64378;55.596;13.014;2023-02-13T06:05:48;103245.94;;;19.48;35.46
75767;BME280;64378;55.596;13.014;2023-02-13T06:08:17;103243.41;;;19.46;35.71
75767;BME280;64378;55.596;13.014;2023-02-13T06:10:42;103249.91;;;19.45;35.67
75767;BME280;64378;55.596;13.014;2023-02-13T06:13:08;103246.13;;;19.46;35.50
75767;BME280;64378;55.596;13.014;2023-02-13T06:15:33;103250.78;;;19.46;35.72
75767;BME280;64378;55.596;13.014;2023-02-13T06:17:58;103246.34;;;19.45;35.55
75767;BME280;64378;55.596;13.014;2023-02-13T06:20:25;103257.31;;;19.45;35.73
75767;BME280;64378;55.596;13.014;2023-02-13T06:22:51;103266.34;;;19.45;35.52
75767;BME280;64378;55.596;13.014;2023-02-13T06:25:17;103262.78;;;19.45;35.41
75767;BME280;64378;55.596;13.014;2023-02-13T06:27:42;103265.50;;;19.45;35.71
75767;BME280;64378;55.596;13.014;2023-02-13T06:30:08;103267.59;;;19.43;35.61
75767;BME280;64378;55.596;13.014;2023-02-13T06:32:34;103267.38;;;19.44;35.70
75767;BME280;64378;55.596;13.014;2023-02-13T06:34:59;103264.66;;;19.44;35.58
75767;BME280;64378;55.596;13.014;2023-02-13T06:37:24;103267.38;;;19.44;35.64
75767;BME280;64378;55.596;13.014;2023-02-13T06:39:50;103270.13;;;19.44;35.64
75767;BME280;64378;55.596;13.014;2023-02-13T06:42:15;103265.69;;;19.43;35.27
75767;BME280;64378;55.596;13.014;2023-02-13T06:44:42;103267.38;;;19.44;35.44
75767;BME280;64378;55.596;13.014;2023-02-13T06:47:07;103261.91;;;19.44;35.54
75767;BME280;64378;55.596;13.014;2023-02-13T06:49:33;103272.88;;;19.44;35.38
75767;BME280;64378;55.596;13.014;2023-02-13T06:51:58;103269.28;;;19.44;35.18
75767;BME280;64378;55.596;13.014;2023-02-13T06:54:23;103269.28;;;19.44;35.43
75767;BME280;64378;55.596;13.014;2023-02-13T06:56:49;103258.91;;;19.39;35.55
75767;BME280;64378;55.596;13.014;2023-02-13T06:59:14;103273.91;;;19.43;35.27
75767;BME280;64378;55.596;13.014;2023-02-13T07:01:40;103271.16;;;19.43;35.41
75767;BME280;64378;55.596;13.014;2023-02-13T07:04:05;103270.53;;;19.41;35.29
75767;BME280;64378;55.596;13.014;2023-02-13T07:06:30;103269.28;;;19.44;35.13
75767;BME280;64378;55.596;13.014;2023-02-13T07:08:56;103271.16;;;19.43;35.09
75767;BME280;64378;55.596;13.014;2023-02-13T07:11:23;103274.13;;;19.42;35.04
75767;BME280;64378;55.596;13.014;2023-02-13T07:13:49;103278.75;;;19.41;35.30
75767;BME280;64378;55.596;13.014;2023-02-13T07:16:15;103285.06;;;19.42;35.06
75767;BME280;64378;55.596;13.014;2023-02-13T07:18:41;103285.91;;;19.42;35.18
75767;BME280;64378;55.596;13.014;2023-02-13T07:21:06;103284.22;;;19.41;35.01
75767;BME280;64378;55.596;13.014;2023-02-13T07:23:32;103287.81;;;19.42;35.01
75767;BME280;64378;55.596;13.014;2023-02-13T07:25:59;103287.81;;;19.42;35.04
75767;BME280;64378;55.596;13.014;2023-02-13T07:28:25;103285.91;;;19.42;35.07
75767;BME280;64378;55.596;13.014;2023-02-13T07:30:51;103273.25;;;19.41;35.17
75767;BME280;64378;55.596;13.014;2023-02-13T07:33:16;103277.69;;;19.42;35.14
75767;BME280;64378;55.596;13.014;2023-02-13T07:35:49;103278.56;;;19.43;34.85
75767;BME280;64378;55.596;13.014;2023-02-13T07:38:15;103275.81;;;19.43;34.74
75767;BME280;64378;55.596;13.014;2023-02-13T07:40:41;103275.81;;;19.43;34.94
75767;BME280;64378;55.596;13.014;2023-02-13T07:43:07;103274.78;;;19.44;35.52
75767;BME280;64378;55.596;13.014;2023-02-13T07:45:32;103276.06;;;19.48;35.75
75767;BME280;64378;55.596;13.014;2023-02-13T07:47:57;103274.16;;;19.48;36.08
75767;BME280;64378;55.596;13.014;2023-02-13T07:50:25;103280.06;;;19.52;36.11
75767;BME280;64378;55.596;13.014;2023-02-13T07:52:59;103281.38;;;19.56;36.17
75767;BME280;64378;55.596;13.014;2023-02-13T07:55:25;103281.84;;;19.59;36.42
75767;BME280;64378;55.596;13.014;2023-02-13T07:57:51;103279.13;;;19.65;36.33
75767;BME280;64378;55.596;13.014;2023-02-13T08:00:17;103276.00;;;19.68;36.00
75767;BME280;64378;55.596;13.014;2023-02-13T08:02:43;103275.81;;;19.76;36.18
75767;BME280;64378;55.596;13.014;2023-02-13T08:05:08;103277.75;;;19.82;36.19
75767;BME280;64378;55.596;13.014;2023-02-13T08:07:34;103273.78;;;19.85;35.93
75767;BME280;64378;55.596;13.014;2023-02-13T08:10:00;103282.84;;;19.92;36.12
75767;BME280;64378;55.596;13.014;2023-02-13T08:12:44;103283.50;;;19.94;35.77
75767;BME280;64378;55.596;13.014;2023-02-13T08:15:11;103274.88;;;19.97;35.68
75767;BME280;64378;55.596;13.014;2023-02-13T08:17:37;103285.25;;;20.01;35.63
75767;BME280;64378;55.596;13.014;2023-02-13T08:20:03;103282.97;;;20.05;35.92
75767;BME280;64378;55.596;13.014;2023-02-13T08:22:31;103278.13;;;20.07;35.59
75767;BME280;64378;55.596;13.014;2023-02-13T08:24:57;103287.00;;;20.09;35.59
75767;BME280;64378;55.596;13.014;2023-02-13T08:27:22;103273.09;;;20.10;35.53
75767;BME280;64378;55.596;13.014;2023-02-13T08:29:48;103273.50;;;20.14;35.67
75767;BME280;64378;55.596;13.014;2023-02-13T08:32:15;103278.59;;;20.17;35.60
75767;BME280;64378;55.596;13.014;2023-02-13T08:34:40;103273.75;;;20.19;35.63
75767;BME280;64378;55.596;13.014;2023-02-13T08:37:06;103262.38;;;20.22;35.41
75767;BME280;64378;55.596;13.014;2023-02-13T08:39:31;103263.66;;;20.26;35.56
75767;BME280;64378;55.596;13.014;2023-02-13T08:41:56;103263.03;;;20.30;35.54
75767;BME280;64378;55.596;13.014;2023-02-13T08:44:22;103263.69;;;20.32;35.47
75767;BME280;64378;55.596;13.014;2023-02-13T08:46:47;103271.09;;;20.38;35.27
75767;BME280;64378;55.596;13.014;2023-02-13T08:49:12;103262.22;;;20.43;35.21
75767;BME280;64378;55.596;13.014;2023-02-13T08:51:38;103269.00;;;20.47;35.07
75767;BME280;64378;55.596;13.014;2023-02-13T08:54:03;103264.78;;;20.51;35.15
75767;BME280;64378;55.596;13.014;2023-02-13T08:56:29;103277.06;;;20.55;35.25
75767;BME280;64378;55.596;13.014;2023-02-13T08:58:54;103268.19;;;20.59;35.21
75767;BME280;64378;55.596;13.014;2023-02-13T09:01:20;103271.38;;;20.63;35.13
75767;BME280;64378;55.596;13.014;2023-02-13T09:03:45;103262.50;;;20.67;35.20
75767;BME280;64378;55.596;13.014;2023-02-13T09:06:10;103268.22;;;20.72;35.09
75767;BME280;64378;55.596;13.014;2023-02-13T09:08:36;103279.63;;;20.75;34.91
75767;BME280;64378;55.596;13.014;2023-02-13T09:11:03;103276.28;;;20.80;34.79
75767;BME280;64378;55.596;13.014;2023-02-13T09:13:31;103282.00;;;20.85;34.99
75767;BME280;64378;55.596;13.014;2023-02-13T09:16:00;103275.66;;;20.91;34.57
75767;BME280;64378;55.596;13.014;2023-02-13T09:18:27;103278.00;;;20.94;34.68
75767;BME280;64378;55.596;13.014;2023-02-13T09:21:02;103279.28;;;20.98;34.48
75767;BME280;64378;55.596;13.014;2023-02-13T09:23:35;103277.81;;;21.02;34.57
75767;BME280;64378;55.596;13.014;2023-02-13T09:26:03;103279.91;;;21.06;34.43
75767;BME280;64378;55.596;13.014;2023-02-13T09:28:30;103283.94;;;21.10;34.46
75767;BME280;64378;55.596;13.014;2023-02-13T09:30:56;103288.13;;;21.13;34.37
75767;BME280;64378;55.596;13.014;2023-02-13T09:33:22;103289.59;;;21.15;34.29
75767;BME280;64378;55.596;13.014;2023-02-13T09:35:48;103288.13;;;21.19;34.32
75767;BME280;64378;55.596;13.014;2023-02-13T09:38:13;103277.78;;;21.21;34.13
75767;BME280;64378;55.596;13.014;2023-02-13T09:40:49;103281.81;;;21.25;34.14
75767;BME280;64378;55.596;13.014;2023-02-13T09:43:44;103279.91;;;21.26;33.97
75767;BME280;64378;55.596;13.014;2023-02-13T09:46:21;103291.31;;;21.29;34.09
75767;BME280;64378;55.596;13.014;2023-02-13T09:48:54;103285.59;;;21.31;34.02
75767;BME280;64378;55.596;13.014;2023-02-13T09:51:21;103293.66;;;21.32;33.99
75767;BME280;64378;55.596;13.014;2023-02-13T09:56:32;103305.03;;;21.36;33.66
75767;BME280;64378;55.596;13.014;2023-02-13T10:01:54;103311.81;;;21.40;33.87
75767;BME280;64378;55.596;13.014;2023-02-13T10:07:44;103313.06;;;21.44;33.93
75767;BME280;64378;55.596;13.014;2023-02-13T10:15:48;103310.31;;;21.50;33.61
75767;BME280;64378;55.596;13.014;2023-02-13T10:18:21;103324.91;;;21.51;33.52
75767;BME280;64378;55.596;13.014;2023-02-13T10:20:55;103332.94;;;21.52;33.43
75767;BME280;64378;55.596;13.014;2023-02-13T10:23:33;103321.72;;;21.54;33.46
75767;BME280;64378;55.596;13.014;2023-02-13T10:26:04;103324.25;;;21.55;33.40
75767;BME280;64378;55.596;13.014;2023-02-13T10:31:05;103338.00;;;21.55;33.48
75767;BME280;64378;55.596;13.014;2023-02-13T10:33:54;103333.81;;;21.59;33.32
75767;BME280;64378;55.596;13.014;2023-02-13T10:36:26;103333.59;;;21.61;33.43
75767;BME280;64378;55.596;13.014;2023-02-13T10:39:08;103353.44;;;21.63;33.29
75767;BME280;64378;55.596;13.014;2023-02-13T10:44:22;103354.50;;;21.68;33.55
75767;BME280;64378;55.596;13.014;2023-02-13T10:47:21;103348.56;;;21.71;33.46
75767;BME280;64378;55.596;13.014;2023-02-13T11:00:43;103350.06;;;21.80;33.09
75767;BME280;64378;55.596;13.014;2023-02-13T11:03:16;103357.88;;;21.83;32.97
75767;BME280;64378;55.596;13.014;2023-02-13T11:05:42;103344.13;;;21.83;32.88
75767;BME280;64378;55.596;13.014;2023-02-13T11:08:40;103350.28;;;21.85;32.84
75767;BME280;64378;55.596;13.014;2023-02-13T11:14:21;103343.72;;;21.86;32.83
75767;BME280;64378;55.596;13.014;2023-02-13T11:19:23;103338.22;;;21.86;32.83
75767;BME280;64378;55.596;13.014;2023-02-13T11:21:53;103342.84;;;21.86;32.79
75767;BME280;64378;55.596;13.014;2023-02-13T11:24:24;103328.03;;;21.87;32.76
75767;BME280;64378;55.596;13.014;2023-02-13T11:27:02;103333.34;;;21.88;32.68
75767;BME280;64378;55.596;13.014;2023-02-13T11:29:35;103333.34;;;21.88;32.45
75767;BME280;64378;55.596;13.014;2023-02-13T11:32:18;103322.13;;;21.89;32.45
75767;BME280;64378;55.596;13.014;2023-02-13T11:34:44;103318.56;;;21.89;32.42
75767;BME280;64378;55.596;13.014;2023-02-13T11:37:26;103326.78;;;21.89;32.45
75767;BME280;64378;55.596;13.014;2023-02-13T11:39:54;103316.63;;;21.89;32.52
75767;BME280;64378;55.596;13.014;2023-02-13T11:44:51;103320.25;;;21.90;32.44
75767;BME280;64378;55.596;13.014;2023-02-13T11:47:30;103305.63;;;21.89;32.36
75767;BME280;64378;55.596;13.014;2023-02-13T11:49:56;103301.00;;;21.90;32.42
75767;BME280;64378;55.596;13.014;2023-02-13T11:52:28;103301.19;;;21.88;32.50
75767;BME280;64378;55.596;13.014;2023-02-13T11:55:03;103295.69;;;21.88;32.46
75767;BME280;64378;55.596;13.014;2023-02-13T11:57:34;103287.44;;;21.88;32.46
75767;BME280;64378;55.596;13.014;2023-02-13T12:00:25;103286.63;;;21.88;32.25
75767;BME280;64378;55.596;13.014;2023-02-13T12:02:47;103281.94;;;21.88;32.30
75767;BME280;64378;55.596;13.014;2023-02-13T12:05:22;103269.25;;;21.88;32.25
75767;BME280;64378;55.596;13.014;2023-02-13T12:07:48;103269.25;;;21.88;32.19
75767;BME280;64378;55.596;13.014;2023-02-13T12:13:20;103277.50;;;21.88;32.19
75767;BME280;64378;55.596;13.014;2023-02-13T12:15:58;103275.81;;;21.87;32.21
75767;BME280;64378;55.596;13.014;2023-02-13T12:18:29;103271.38;;;21.86;32.28
75767;BME280;64378;55.596;13.014;2023-02-13T12:21:11;103278.16;;;21.83;32.19
75767;BME280;64378;55.596;13.014;2023-02-13T12:23:49;103289.16;;;21.83;32.15
75767;BME280;64378;55.596;13.014;2023-02-13T12:26:30;103292.75;;;21.84;32.11
75767;BME280;64378;55.596;13.014;2023-02-13T12:40:06;103305.44;;;21.78;32.01
75767;BME280;64378;55.596;13.014;2023-02-13T12:45:48;103296.56;;;21.76;32.25
75767;BME280;64378;55.596;13.014;2023-02-13T13:02:46;103309.69;;;21.68;32.10
75767;BME280;64378;55.596;13.014;2023-02-13T13:05:31;103303.34;;;21.67;32.20
75767;BME280;64378;55.596;13.014;2023-02-13T13:08:26;103311.59;;;21.67;32.25
75767;BME280;64378;55.596;13.014;2023-02-13T13:22:12;103285.56;;;21.57;32.23
75767;BME280;64378;55.596;13.014;2023-02-13T13:27:27;103284.94;;;21.55;32.13
75767;BME280;64378;55.596;13.014;2023-02-13T13:29:58;103296.97;;;21.54;32.15
75767;BME280;64378;55.596;13.014;2023-02-13T13:32:27;103301.66;;;21.53;32.23
75767;BME280;64378;55.596;13.014;2023-02-13T13:34:54;103301.00;;;21.51;32.14
75767;BME280;64378;55.596;13.014;2023-02-13T13:37:28;103289.41;;;21.49;31.96
75767;BME280;64378;55.596;13.014;2023-02-13T13:42:46;103288.75;;;21.47;32.06
75767;BME280;64378;55.596;13.014;2023-02-13T13:45:36;103292.56;;;21.46;32.22
75767;BME280;64378;55.596;13.014;2023-02-13T13:50:51;103276.50;;;21.43;32.36
75767;BME280;64378;55.596;13.014;2023-02-13T13:53:18;103272.06;;;21.42;32.24
75767;BME280;64378;55.596;13.014;2023-02-13T13:58:33;103275.47;;;21.38;32.33
75767;BME280;64378;55.596;13.014;2023-02-13T14:03:40;103260.25;;;21.35;32.54
75767;BME280;64378;55.596;13.014;2023-02-13T14:06:13;103268.50;;;21.35;32.70
75767;BME280;64378;55.596;13.014;2023-02-13T14:11:05;103260.66;;;21.39;33.54
75767;BME280;64378;55.596;13.014;2023-02-13T14:13:37;103261.53;;;21.39;33.59
75767;BME280;64378;55.596;13.014;2023-02-13T14:16:10;103260.66;;;21.39;33.61
75767;BME280;64378;55.596;13.014;2023-02-13T14:18:36;103246.13;;;21.38;33.61
75767;BME280;64378;55.596;13.014;2023-02-13T14:21:03;103252.66;;;21.37;33.67
75767;BME280;64378;55.596;13.014;2023-02-13T14:26:22;103256.47;;;21.36;34.05
75767;BME280;64378;55.596;13.014;2023-02-13T14:31:25;103250.34;;;21.34;34.19
75767;BME280;64378;55.596;13.014;2023-02-13T14:36:43;103252.44;;;21.32;34.54
75767;BME280;64378;55.596;13.014;2023-02-13T14:44:46;103266.59;;;21.29;34.58
75767;BME280;64378;55.596;13.014;2023-02-13T14:50:48;103267.88;;;21.27;34.17
75767;BME280;64378;55.596;13.014;2023-02-13T14:53:31;103267.25;;;21.25;34.32
75767;BME280;64378;55.596;13.014;2023-02-13T14:56:06;103271.03;;;21.24;34.07
75767;BME280;64378;55.596;13.014;2023-02-13T14:58:35;103269.34;;;21.23;34.23
75767;BME280;64378;55.596;13.014;2023-02-13T15:01:34;103273.34;;;21.20;34.14
75767;BME280;64378;55.596;13.014;2023-02-13T15:04:16;103281.59;;;21.20;34.37
75767;BME280;64378;55.596;13.014;2023-02-13T15:06:44;103285.38;;;21.19;34.13
75767;BME280;64378;55.596;13.014;2023-02-13T15:09:23;103285.38;;;21.19;33.85
75767;BME280;64378;55.596;13.014;2023-02-13T15:11:50;103285.38;;;21.19;34.19
75767;BME280;64378;55.596;13.014;2023-02-13T15:14:35;103294.50;;;21.20;34.04
75767;BME280;64378;55.596;13.014;2023-02-13T15:17:12;103298.06;;;21.20;33.78
75767;BME280;64378;55.596;13.014;2023-02-13T15:19:43;103290.88;;;21.19;33.70
75767;BME280;64378;55.596;13.014;2023-02-13T15:22:19;103292.78;;;21.19;33.76
75767;BME280;64378;55.596;13.014;2023-02-13T15:24:47;103300.16;;;21.18;33.98
75767;BME280;64378;55.596;13.014;2023-02-13T15:27:20;103293.84;;;21.18;33.92
75767;BME280;64378;55.596;13.014;2023-02-13T15:29:58;103288.56;;;21.16;33.72
75767;BME280;64378;55.596;13.014;2023-02-13T15:32:31;103295.97;;;21.16;33.68
75767;BME280;64378;55.596;13.014;2023-02-13T15:34:57;103293.22;;;21.16;33.55
75767;BME280;64378;55.596;13.014;2023-02-13T15:37:26;103298.06;;;21.14;33.52